Santiago Guardado

Scout - Monterrey
4 Apr 2027
Sonntag
Verarbeitung

Persönlichkeit

Anpassungsfähigkeit (8) Ehrgeiz (9) Kontroverse (17) Loyalität (4) Druck (8) Professionalität (18) Fairness (5) Temperament (14)

Profil

Trainerstil Demokratisch
Lizenz Nationale B
Entschlossenheit 7
Menschenführung 15
Motivation 11
Disziplin 12
Arbeitszufriedenheit
100%
Ermüdung
0%
Rolle Scout
Gehalt 78.2K p/W
Vertrag 14.03.2030

Leistung

Verhalten Gut
Trainingseffektivität
63%
Spielerentwicklung
50%
Verletzungsprävention
75%
Taktische Umsetzung
65%

Letzte Ereignisse

Nahm an einer Scouting-Besprechung teil jetzt
Nahm an einer Scouting-Besprechung teil jetzt
Empfahl ein Transferziel jetzt
Nahm an einer Scouting-Besprechung teil jetzt
Spieler begutachtet jetzt
Spieler begutachtet jetzt
Spieler begutachtet jetzt
Spieler begutachtet jetzt

Aktuell beobachtet

74
Spieler Verein Status Fähigkeit Vertrauen Beobachtet Zuletzt beobachtet Letzte Stimme
Andrea Carboni Monza Aktiv 130 / 124 40% 1 03.04.2027 -
Wagner Pina Trabzonspor Aktiv 125 / 121 40% 1 03.04.2027 -
Armel Bella-Kotchap Venezia Aktiv 133 / 129 40% 1 03.04.2027 -
Pedro Henrique Shakhtar Aktiv 130 / 141 40% 1 02.04.2027 -
Sebastián Cáceres Club America Aktiv 135 / 133 40% 1 02.04.2027 -
Alex Robertson Cardiff City Aktiv 120 / 129 40% 1 02.04.2027 -
Alán Bautista Pachuca Aktiv 115 / 101 40% 1 02.04.2027 -
Ethan Williams Peterborough United Aktiv 113 / 121 40% 1 02.04.2027 -
Melker Widell Swansea City Aktiv 119 / 118 40% 1 31.03.2027 -
Ibrahim Tarek Masr El Makasa Aktiv 131 / 131 40% 1 31.03.2027 -
Stanley Mills Oxford United Aktiv 119 / 125 40% 1 31.03.2027 -
Thorgan Nainggolan Mouscron Aktiv 108 / 116 40% 3 30.03.2027 -
Lennon Miller Udinese Aktiv 132 / 145 40% 2 30.03.2027 -
Luis Quintero Torreense Aktiv 128 / 119 40% 2 30.03.2027 -
Iker Benito Queretaro Aktiv 121 / 112 40% 1 30.03.2027 -
Myles Peart-Harris Plymouth Argyle Aktiv 118 / 118 40% 1 30.03.2027 -
Davinchi Getafe Aktiv 111 / 125 40% 1 30.03.2027 -
Juan Bezerra Zamalek Aktiv 122 / 138 40% 3 28.03.2027 -
Bayron Duarte Queretaro Aktiv 116 / 107 40% 1 28.03.2027 -
Lorougnon Gohi Académico de Viseu Aktiv 115 / 113 40% 1 28.03.2027 -
Jonathan Arteaga Veracruz Aktiv 120 / 126 40% 2 27.03.2027 -
Federico Pereira Toluca Abgelehnt 140 / 124 40% 1 27.03.2027 Mehr Infos nötig
Eliás Montiel Pachuca Aktiv 126 / 139 40% 1 27.03.2027 -
Matteo Lovato Padova Aktiv 132 / 133 40% 1 27.03.2027 -
Martim Cunha Porto Aktiv 97 / 97 40% 1 27.03.2027 -
José Pachuca Puebla Aktiv 110 / 108 40% 1 27.03.2027 -
Relebohile Mofokeng Orlando Pirates Aktiv 116 / 139 40% 2 24.03.2027 -
Jelle Bataille Maccabi Haifa Aktiv 132 / 137 40% 1 24.03.2027 -
Vinicius Tobias Shakhtar Aktiv 134 / 127 40% 1 24.03.2027 -
Volodymyr Brazhko Dynamo Kyiv Aktiv 133 / 129 40% 1 24.03.2027 -
Ibrahim Cissoko Zwolle Aktiv 120 / 111 40% 1 24.03.2027 -
Cian Ashford Cardiff City Aktiv 118 / 126 40% 1 23.03.2027 -
Emi Rodriguez Leon Aktiv 121 / 129 40% 1 23.03.2027 -
Ilario Monterisi Frosinone Aktiv 127 / 121 40% 1 21.03.2027 -
Erik Lira Cruz Azul Aktiv 133 / 130 40% 1 21.03.2027 -
Luke Thomas Leicester City Aktiv 125 / 127 40% 1 21.03.2027 -
Nacer Tielemans Mouscron Aktiv 132 / 142 40% 1 20.03.2027 -
Alpha Touré FC Metz Aktiv 113 / 123 40% 1 18.03.2027 -
Sergio Barreto Pachuca Aktiv 129 / 122 40% 1 18.03.2027 -
Facundo Garcés Alavés Aktiv 132 / 139 40% 1 18.03.2027 -
Kaveh Mohammadi Padideh Aktiv 131 / 139 40% 1 18.03.2027 -
Nazar Voloshyn Dynamo Kyiv Aktiv 126 / 121 40% 1 16.03.2027 -
Itumeleng Zungu Free State Stars Aktiv 112 / 136 40% 1 10.03.2027 -
Rabby Nzingoula West Bromwich Albion Aktiv 121 / 132 40% 1 10.03.2027 -
Milan Roganović Partizan Aktiv 112 / 115 40% 1 10.03.2027 -
Joaquin Seys Club Brugge Aktiv 127 / 126 40% 1 03.03.2027 -
Salvador Blopá Sporting CP Aktiv 118 / 122 40% 1 03.03.2027 -
Nicolás Ibáñez Cruz Azul Aktiv 132 / 144 83% 1 01.01.2027 Befürworten
Alejandro Piedrahita Deportivo Pereira Verloren 129 / 120 40% 2 26.12.2026 -
Florián Monzón Atlas Aktiv 123 / 134 40% 1 26.12.2026 -
Mihailo Ivanović Millwall Aktiv 125 / 116 40% 1 26.12.2026 -
Percy Erasmus SuperSport United Aktiv 126 / 129 40% 2 10.12.2026 -
Everton Bala Levski Aktiv 122 / 122 40% 1 10.12.2026 -
Luca Martínez Dupuy Godoy Cruz Aktiv 122 / 131 40% 1 02.12.2026 -
Assad Al Hamlawi Universitatea Craiova Aktiv 118 / 105 40% 1 25.11.2026 -
Ammar Ramadan DAC Dunajska Streda Aktiv 124 / 115 40% 1 22.11.2026 -
Exequiel Zeballos Boca Juniors Aktiv 130 / 124 40% 1 22.11.2026 -
Afimico Pululu Al-Hazem Aktiv 133 / 137 40% 1 20.11.2026 Mehr Infos nötig
Efraín Álvarez Guadalajara Aktiv 129 / 136 40% 1 20.11.2026 -
Jefry Zapata Once Caldas Aktiv 120 / 128 40% 1 20.11.2026 -
Dom Ballard Leyton Orient Aktiv 123 / 119 40% 1 19.11.2026 -
Erik Botheim Malmo FF Aktiv 122 / 113 40% 1 19.11.2026 -
Juan Cruz de los Santos Nacional Aktiv 124 / 126 40% 1 18.11.2026 -
Alan Velasco Boca Juniors Aktiv 128 / 121 40% 3 07.11.2026 -
Nahuel Ulariaga Al Ahli Aktiv 116 / 108 40% 2 07.11.2026 -
Agustín Ruberto River Plate Verloren 119 / 137 40% 1 06.11.2026 -
Alexis Cuello San Lorenzo Aktiv 123 / 116 40% 2 04.11.2026 -
Kévin Denkey FC Cincinnati Aktiv 129 / 135 40% 1 17.10.2026 -
Clemente Montes Universidad Catolica Aktiv 123 / 116 40% 1 17.10.2026 -
Justo Giani Universidad Catolica Aktiv 122 / 123 40% 1 17.10.2026 -
Luciano Cosentino Wanderers Aktiv 121 / 124 40% 2 09.10.2026 -
Matías Giménez Rojas Argentinos Juniors Aktiv 125 / 113 40% 1 09.10.2026 -
Bruno Barticciotto Talleres Aktiv 127 / 134 40% 1 09.10.2026 -
Ignacio Russo Tigre Aktiv 122 / 138 40% 1 05.10.2026 -